sensor_id;sensor_type;location;lat;lon;timestamp;temperature;humidity
25918;DHT22;13899;51.174;4.456;2024-01-27T00:01:42;4.00;99.90
25918;DHT22;13899;51.174;4.456;2024-01-27T00:04:08;4.00;99.90
25918;DHT22;13899;51.174;4.456;2024-01-27T00:06:34;3.90;99.90
25918;DHT22;13899;51.174;4.456;2024-01-27T00:08:59;3.90;99.90
25918;DHT22;13899;51.174;4.456;2024-01-27T00:11:25;3.90;99.90
25918;DHT22;13899;51.174;4.456;2024-01-27T00:13:52;3.80;99.90
25918;DHT22;13899;51.174;4.456;2024-01-27T00:16:18;3.80;99.90
25918;DHT22;13899;51.174;4.456;2024-01-27T00:18:43;3.80;99.90
25918;DHT22;13899;51.174;4.456;2024-01-27T00:21:09;3.80;99.90
25918;DHT22;13899;51.174;4.456;2024-01-27T00:23:34;3.70;99.90
25918;DHT22;13899;51.174;4.456;2024-01-27T00:26:03;3.80;99.90
25918;DHT22;13899;51.174;4.456;2024-01-27T00:28:29;3.90;99.90
25918;DHT22;13899;51.174;4.456;2024-01-27T00:30:55;3.80;99.90
25918;DHT22;13899;51.174;4.456;2024-01-27T00:33:21;3.80;99.90
25918;DHT22;13899;51.174;4.456;2024-01-27T00:35:47;3.80;99.90
25918;DHT22;13899;51.174;4.456;2024-01-27T00:38:13;3.80;99.90
25918;DHT22;13899;51.174;4.456;2024-01-27T00:40:38;3.70;99.90
25918;DHT22;13899;51.174;4.456;2024-01-27T00:43:04;3.80;99.90
25918;DHT22;13899;51.174;4.456;2024-01-27T00:45:30;3.70;99.90
25918;DHT22;13899;51.174;4.456;2024-01-27T00:47:58;3.70;99.90
25918;DHT22;13899;51.174;4.456;2024-01-27T00:50:24;3.60;99.90
25918;DHT22;13899;51.174;4.456;2024-01-27T00:52:50;3.70;99.90
25918;DHT22;13899;51.174;4.456;2024-01-27T00:55:16;3.70;99.90
25918;DHT22;13899;51.174;4.456;2024-01-27T00:57:43;3.60;99.90
25918;DHT22;13899;51.174;4.456;2024-01-27T01:00:10;3.70;99.90
25918;DHT22;13899;51.174;4.456;2024-01-27T01:02:36;3.90;99.90
25918;DHT22;13899;51.174;4.456;2024-01-27T01:05:02;3.70;99.90
25918;DHT22;13899;51.174;4.456;2024-01-27T01:07:29;3.60;99.90
25918;DHT22;13899;51.174;4.456;2024-01-27T01:09:55;3.60;99.90
25918;DHT22;13899;51.174;4.456;2024-01-27T01:12:21;3.50;99.90
25918;DHT22;13899;51.174;4.456;2024-01-27T01:14:46;3.50;99.90
25918;DHT22;13899;51.174;4.456;2024-01-27T01:17:12;3.40;99.90
25918;DHT22;13899;51.174;4.456;2024-01-27T01:19:38;3.50;99.90
25918;DHT22;13899;51.174;4.456;2024-01-27T01:22:04;3.50;99.90
25918;DHT22;13899;51.174;4.456;2024-01-27T01:24:30;3.40;99.90
25918;DHT22;13899;51.174;4.456;2024-01-27T01:26:56;3.40;99.90
25918;DHT22;13899;51.174;4.456;2024-01-27T01:29:21;3.40;99.90
25918;DHT22;13899;51.174;4.456;2024-01-27T01:31:47;3.40;99.90
25918;DHT22;13899;51.174;4.456;2024-01-27T01:34:13;3.30;99.90
25918;DHT22;13899;51.174;4.456;2024-01-27T01:36:39;3.30;99.90
25918;DHT22;13899;51.174;4.456;2024-01-27T01:39:05;3.30;99.90
25918;DHT22;13899;51.174;4.456;2024-01-27T01:41:31;3.20;99.90
25918;DHT22;13899;51.174;4.456;2024-01-27T01:43:57;3.40;99.90
25918;DHT22;13899;51.174;4.456;2024-01-27T01:46:23;3.30;99.90
25918;DHT22;13899;51.174;4.456;2024-01-27T01:48:51;3.30;99.90
25918;DHT22;13899;51.174;4.456;2024-01-27T01:51:17;3.30;99.90
25918;DHT22;13899;51.174;4.456;2024-01-27T01:53:45;3.40;99.90
25918;DHT22;13899;51.174;4.456;2024-01-27T01:56:12;3.30;99.90
25918;DHT22;13899;51.174;4.456;2024-01-27T01:58:38;3.30;99.90
25918;DHT22;13899;51.174;4.456;2024-01-27T02:01:04;3.20;99.90
25918;DHT22;13899;51.174;4.456;2024-01-27T02:03:30;3.20;99.90
25918;DHT22;13899;51.174;4.456;2024-01-27T02:05:56;3.20;99.90
25918;DHT22;13899;51.174;4.456;2024-01-27T02:08:22;3.10;99.90
25918;DHT22;13899;51.174;4.456;2024-01-27T02:10:47;3.10;99.90
25918;DHT22;13899;51.174;4.456;2024-01-27T02:13:20;3.10;99.90
25918;DHT22;13899;51.174;4.456;2024-01-27T02:15:47;3.10;99.90
25918;DHT22;13899;51.174;4.456;2024-01-27T02:18:13;3.10;99.90
25918;DHT22;13899;51.174;4.456;2024-01-27T02:20:39;3.10;99.90
25918;DHT22;13899;51.174;4.456;2024-01-27T02:23:05;3.10;99.90
25918;DHT22;13899;51.174;4.456;2024-01-27T02:25:31;3.00;99.90
25918;DHT22;13899;51.174;4.456;2024-01-27T02:27:57;3.00;99.90
25918;DHT22;13899;51.174;4.456;2024-01-27T02:30:23;3.10;99.90
25918;DHT22;13899;51.174;4.456;2024-01-27T02:32:49;3.00;99.90
25918;DHT22;13899;51.174;4.456;2024-01-27T02:35:14;3.00;99.90
25918;DHT22;13899;51.174;4.456;2024-01-27T02:37:41;3.00;99.90
25918;DHT22;13899;51.174;4.456;2024-01-27T02:40:08;2.90;99.90
25918;DHT22;13899;51.174;4.456;2024-01-27T02:42:35;2.90;99.90
25918;DHT22;13899;51.174;4.456;2024-01-27T02:45:01;2.90;99.90
25918;DHT22;13899;51.174;4.456;2024-01-27T02:47:27;2.90;99.90
25918;DHT22;13899;51.174;4.456;2024-01-27T02:49:53;2.90;99.90
25918;DHT22;13899;51.174;4.456;2024-01-27T02:52:19;2.90;99.90
25918;DHT22;13899;51.174;4.456;2024-01-27T02:54:45;2.90;99.90
25918;DHT22;13899;51.174;4.456;2024-01-27T02:57:11;2.90;99.90
25918;DHT22;13899;51.174;4.456;2024-01-27T02:59:36;2.80;99.90
25918;DHT22;13899;51.174;4.456;2024-01-27T03:02:04;2.90;99.90
25918;DHT22;13899;51.174;4.456;2024-01-27T03:04:30;2.90;99.90
25918;DHT22;13899;51.174;4.456;2024-01-27T03:06:56;2.80;99.90
25918;DHT22;13899;51.174;4.456;2024-01-27T03:09:21;2.90;99.90
25918;DHT22;13899;51.174;4.456;2024-01-27T03:11:47;2.80;99.90
25918;DHT22;13899;51.174;4.456;2024-01-27T03:14:12;2.80;99.90
25918;DHT22;13899;51.174;4.456;2024-01-27T03:16:38;2.70;99.90
25918;DHT22;13899;51.174;4.456;2024-01-27T03:19:04;2.70;99.90
25918;DHT22;13899;51.174;4.456;2024-01-27T03:21:29;2.70;99.90
25918;DHT22;13899;51.174;4.456;2024-01-27T03:23:55;2.70;99.90
25918;DHT22;13899;51.174;4.456;2024-01-27T03:26:21;2.90;99.90
25918;DHT22;13899;51.174;4.456;2024-01-27T03:28:47;2.90;99.90
25918;DHT22;13899;51.174;4.456;2024-01-27T03:31:12;3.00;99.90
25918;DHT22;13899;51.174;4.456;2024-01-27T03:33:38;3.20;99.90
25918;DHT22;13899;51.174;4.456;2024-01-27T03:36:12;3.00;99.90
25918;DHT22;13899;51.174;4.456;2024-01-27T03:38:41;2.80;99.90
25918;DHT22;13899;51.174;4.456;2024-01-27T03:41:07;2.70;99.90
25918;DHT22;13899;51.174;4.456;2024-01-27T03:43:33;2.50;99.90
25918;DHT22;13899;51.174;4.456;2024-01-27T03:46:00;2.50;99.90
25918;DHT22;13899;51.174;4.456;2024-01-27T03:48:25;2.40;99.90
25918;DHT22;13899;51.174;4.456;2024-01-27T03:50:51;2.60;99.90
25918;DHT22;13899;51.174;4.456;2024-01-27T03:53:17;2.60;99.90
25918;DHT22;13899;51.174;4.456;2024-01-27T03:55:42;2.60;99.90
25918;DHT22;13899;51.174;4.456;2024-01-27T03:58:08;2.60;99.90
25918;DHT22;13899;51.174;4.456;2024-01-27T04:00:33;2.40;99.90
25918;DHT22;13899;51.174;4.456;2024-01-27T04:02:59;2.50;99.90
25918;DHT22;13899;51.174;4.456;2024-01-27T04:05:27;2.40;99.90
25918;DHT22;13899;51.174;4.456;2024-01-27T04:07:53;2.50;99.90
25918;DHT22;13899;51.174;4.456;2024-01-27T04:10:19;2.60;99.90
25918;DHT22;13899;51.174;4.456;2024-01-27T04:12:44;2.40;99.90
25918;DHT22;13899;51.174;4.456;2024-01-27T04:15:10;2.40;99.90
25918;DHT22;13899;51.174;4.456;2024-01-27T04:17:37;2.30;99.90
25918;DHT22;13899;51.174;4.456;2024-01-27T04:20:03;2.30;99.90
25918;DHT22;13899;51.174;4.456;2024-01-27T04:22:30;2.30;99.90
25918;DHT22;13899;51.174;4.456;2024-01-27T04:24:56;2.20;99.90
25918;DHT22;13899;51.174;4.456;2024-01-27T04:27:21;2.30;99.90
25918;DHT22;13899;51.174;4.456;2024-01-27T04:29:48;2.10;99.90
25918;DHT22;13899;51.174;4.456;2024-01-27T04:32:13;2.30;99.90
25918;DHT22;13899;51.174;4.456;2024-01-27T04:34:39;2.20;99.90
25918;DHT22;13899;51.174;4.456;2024-01-27T04:37:05;2.30;99.90
25918;DHT22;13899;51.174;4.456;2024-01-27T04:39:31;2.30;99.90
25918;DHT22;13899;51.174;4.456;2024-01-27T04:41:56;2.20;99.90
25918;DHT22;13899;51.174;4.456;2024-01-27T04:44:22;2.20;99.90
25918;DHT22;13899;51.174;4.456;2024-01-27T04:46:48;2.10;99.90
25918;DHT22;13899;51.174;4.456;2024-01-27T04:49:14;2.10;99.90
25918;DHT22;13899;51.174;4.456;2024-01-27T04:51:40;2.10;99.90
25918;DHT22;13899;51.174;4.456;2024-01-27T04:54:07;2.10;99.90
25918;DHT22;13899;51.174;4.456;2024-01-27T04:56:33;2.10;99.90
25918;DHT22;13899;51.174;4.456;2024-01-27T04:58:58;2.00;99.90
25918;DHT22;13899;51.174;4.456;2024-01-27T05:01:24;1.90;99.90
25918;DHT22;13899;51.174;4.456;2024-01-27T05:03:50;2.10;99.90
25918;DHT22;13899;51.174;4.456;2024-01-27T05:06:15;2.10;99.90
25918;DHT22;13899;51.174;4.456;2024-01-27T05:08:41;2.00;99.90
25918;DHT22;13899;51.174;4.456;2024-01-27T05:11:07;2.00;99.90
25918;DHT22;13899;51.174;4.456;2024-01-27T05:13:33;1.90;99.90
25918;DHT22;13899;51.174;4.456;2024-01-27T05:15:58;2.00;99.90
25918;DHT22;13899;51.174;4.456;2024-01-27T05:18:24;2.20;99.90
25918;DHT22;13899;51.174;4.456;2024-01-27T05:20:50;2.30;99.90
25918;DHT22;13899;51.174;4.456;2024-01-27T05:23:15;2.20;99.90
25918;DHT22;13899;51.174;4.456;2024-01-27T05:25:41;2.10;99.90
25918;DHT22;13899;51.174;4.456;2024-01-27T05:28:06;2.10;99.90
25918;DHT22;13899;51.174;4.456;2024-01-27T05:30:32;2.10;99.90
25918;DHT22;13899;51.174;4.456;2024-01-27T05:32:58;2.10;99.90
25918;DHT22;13899;51.174;4.456;2024-01-27T05:35:24;2.20;99.90
25918;DHT22;13899;51.174;4.456;2024-01-27T05:37:49;2.00;99.90
25918;DHT22;13899;51.174;4.456;2024-01-27T05:40:16;1.90;99.90
25918;DHT22;13899;51.174;4.456;2024-01-27T05:42:42;1.90;99.90
25918;DHT22;13899;51.174;4.456;2024-01-27T05:45:10;1.80;99.90
25918;DHT22;13899;51.174;4.456;2024-01-27T05:47:36;1.90;99.90
25918;DHT22;13899;51.174;4.456;2024-01-27T05:50:01;2.00;99.90
25918;DHT22;13899;51.174;4.456;2024-01-27T05:52:28;2.00;99.90
25918;DHT22;13899;51.174;4.456;2024-01-27T05:54:54;2.00;99.90
25918;DHT22;13899;51.174;4.456;2024-01-27T05:57:20;1.90;99.90
25918;DHT22;13899;51.174;4.456;2024-01-27T05:59:46;1.80;99.90
25918;DHT22;13899;51.174;4.456;2024-01-27T06:02:11;1.80;99.90
25918;DHT22;13899;51.174;4.456;2024-01-27T06:04:37;1.70;99.90
25918;DHT22;13899;51.174;4.456;2024-01-27T06:07:03;1.80;99.90
25918;DHT22;13899;51.174;4.456;2024-01-27T06:09:29;1.80;99.90
25918;DHT22;13899;51.174;4.456;2024-01-27T06:11:59;2.00;99.90
25918;DHT22;13899;51.174;4.456;2024-01-27T06:14:25;1.90;99.90
25918;DHT22;13899;51.174;4.456;2024-01-27T06:16:50;1.90;99.90
25918;DHT22;13899;51.174;4.456;2024-01-27T06:19:16;1.90;99.90
25918;DHT22;13899;51.174;4.456;2024-01-27T06:21:42;1.80;99.90
25918;DHT22;13899;51.174;4.456;2024-01-27T06:24:08;1.70;99.90
25918;DHT22;13899;51.174;4.456;2024-01-27T06:26:33;1.70;99.90
25918;DHT22;13899;51.174;4.456;2024-01-27T06:28:59;1.70;99.90
25918;DHT22;13899;51.174;4.456;2024-01-27T06:31:25;1.70;99.90
25918;DHT22;13899;51.174;4.456;2024-01-27T06:33:51;1.70;99.90
25918;DHT22;13899;51.174;4.456;2024-01-27T06:36:17;1.70;99.90
25918;DHT22;13899;51.174;4.456;2024-01-27T06:38:42;1.70;99.90
25918;DHT22;13899;51.174;4.456;2024-01-27T06:41:08;1.70;99.90
25918;DHT22;13899;51.174;4.456;2024-01-27T06:43:35;1.80;99.90
25918;DHT22;13899;51.174;4.456;2024-01-27T06:46:00;1.70;99.90
25918;DHT22;13899;51.174;4.456;2024-01-27T06:48:26;1.60;99.90
25918;DHT22;13899;51.174;4.456;2024-01-27T06:50:52;1.70;99.90
25918;DHT22;13899;51.174;4.456;2024-01-27T06:53:21;1.80;99.90
25918;DHT22;13899;51.174;4.456;2024-01-27T06:55:46;1.80;99.90
25918;DHT22;13899;51.174;4.456;2024-01-27T06:58:12;1.80;99.90
25918;DHT22;13899;51.174;4.456;2024-01-27T07:00:38;1.80;99.90
25918;DHT22;13899;51.174;4.456;2024-01-27T07:03:04;1.80;99.90
25918;DHT22;13899;51.174;4.456;2024-01-27T07:05:30;2.20;99.90
25918;DHT22;13899;51.174;4.456;2024-01-27T07:07:58;2.70;99.90
25918;DHT22;13899;51.174;4.456;2024-01-27T07:10:24;2.50;99.90
25918;DHT22;13899;51.174;4.456;2024-01-27T07:12:49;2.10;99.90
25918;DHT22;13899;51.174;4.456;2024-01-27T07:15:15;2.00;99.90
25918;DHT22;13899;51.174;4.456;2024-01-27T07:17:40;2.00;99.90
25918;DHT22;13899;51.174;4.456;2024-01-27T07:20:07;2.00;99.90
25918;DHT22;13899;51.174;4.456;2024-01-27T07:22:33;1.90;99.90
25918;DHT22;13899;51.174;4.456;2024-01-27T07:24:59;1.80;99.90
25918;DHT22;13899;51.174;4.456;2024-01-27T07:27:24;1.80;99.90
25918;DHT22;13899;51.174;4.456;2024-01-27T07:29:50;1.70;99.90
25918;DHT22;13899;51.174;4.456;2024-01-27T07:32:16;1.70;99.90
25918;DHT22;13899;51.174;4.456;2024-01-27T07:34:43;1.70;99.90
25918;DHT22;13899;51.174;4.456;2024-01-27T07:37:09;1.70;99.90
25918;DHT22;13899;51.174;4.456;2024-01-27T07:39:35;1.70;99.90
25918;DHT22;13899;51.174;4.456;2024-01-27T07:42:01;1.80;99.90
25918;DHT22;13899;51.174;4.456;2024-01-27T07:44:27;1.80;99.90
25918;DHT22;13899;51.174;4.456;2024-01-27T07:46:52;1.80;99.90
25918;DHT22;13899;51.174;4.456;2024-01-27T07:49:18;1.80;99.90
25918;DHT22;13899;51.174;4.456;2024-01-27T07:51:44;1.80;99.90
25918;DHT22;13899;51.174;4.456;2024-01-27T07:54:10;1.80;99.90
25918;DHT22;13899;51.174;4.456;2024-01-27T07:56:37;1.90;99.90
25918;DHT22;13899;51.174;4.456;2024-01-27T07:59:02;1.90;99.90
25918;DHT22;13899;51.174;4.456;2024-01-27T08:01:28;2.10;99.90
25918;DHT22;13899;51.174;4.456;2024-01-27T08:03:54;2.00;99.90
25918;DHT22;13899;51.174;4.456;2024-01-27T08:06:27;2.00;99.90
25918;DHT22;13899;51.174;4.456;2024-01-27T08:08:54;2.00;99.90
25918;DHT22;13899;51.174;4.456;2024-01-27T08:11:20;2.00;99.90
25918;DHT22;13899;51.174;4.456;2024-01-27T08:13:46;2.00;99.90
25918;DHT22;13899;51.174;4.456;2024-01-27T08:16:11;2.00;99.90
25918;DHT22;13899;51.174;4.456;2024-01-27T08:18:41;2.10;99.90
25918;DHT22;13899;51.174;4.456;2024-01-27T08:21:11;2.20;99.90
25918;DHT22;13899;51.174;4.456;2024-01-27T08:23:40;2.20;99.90
25918;DHT22;13899;51.174;4.456;2024-01-27T08:26:06;2.30;99.90
25918;DHT22;13899;51.174;4.456;2024-01-27T08:28:32;2.40;99.90
25918;DHT22;13899;51.174;4.456;2024-01-27T08:30:57;2.40;99.90
25918;DHT22;13899;51.174;4.456;2024-01-27T08:33:25;2.40;99.90
25918;DHT22;13899;51.174;4.456;2024-01-27T08:35:50;2.40;99.90
25918;DHT22;13899;51.174;4.456;2024-01-27T08:38:17;2.50;99.90
25918;DHT22;13899;51.174;4.456;2024-01-27T08:40:43;2.50;99.90
25918;DHT22;13899;51.174;4.456;2024-01-27T08:43:08;2.60;99.90
25918;DHT22;13899;51.174;4.456;2024-01-27T08:45:37;2.60;99.90
25918;DHT22;13899;51.174;4.456;2024-01-27T08:48:03;2.80;99.90
25918;DHT22;13899;51.174;4.456;2024-01-27T08:50:28;2.90;99.90
25918;DHT22;13899;51.174;4.456;2024-01-27T08:52:54;3.00;99.90
25918;DHT22;13899;51.174;4.456;2024-01-27T08:55:20;3.10;99.90
25918;DHT22;13899;51.174;4.456;2024-01-27T08:57:49;3.20;99.90
25918;DHT22;13899;51.174;4.456;2024-01-27T09:00:15;3.10;99.90
25918;DHT22;13899;51.174;4.456;2024-01-27T09:02:42;3.10;99.90
25918;DHT22;13899;51.174;4.456;2024-01-27T09:05:08;3.20;99.90
25918;DHT22;13899;51.174;4.456;2024-01-27T09:07:34;3.20;99.90
25918;DHT22;13899;51.174;4.456;2024-01-27T09:10:00;3.20;99.90
25918;DHT22;13899;51.174;4.456;2024-01-27T09:12:25;3.40;99.90
25918;DHT22;13899;51.174;4.456;2024-01-27T09:14:51;3.40;99.90
25918;DHT22;13899;51.174;4.456;2024-01-27T09:17:17;3.50;99.90
25918;DHT22;13899;51.174;4.456;2024-01-27T09:19:42;3.80;99.90
25918;DHT22;13899;51.174;4.456;2024-01-27T09:22:08;4.00;99.90
25918;DHT22;13899;51.174;4.456;2024-01-27T09:24:33;4.10;99.90
25918;DHT22;13899;51.174;4.456;2024-01-27T09:26:59;4.20;99.90
25918;DHT22;13899;51.174;4.456;2024-01-27T09:29:25;4.20;99.90
25918;DHT22;13899;51.174;4.456;2024-01-27T09:31:50;4.10;99.90
25918;DHT22;13899;51.174;4.456;2024-01-27T09:34:16;4.60;99.90
25918;DHT22;13899;51.174;4.456;2024-01-27T09:36:42;4.70;99.90
25918;DHT22;13899;51.174;4.456;2024-01-27T09:39:07;4.50;99.90
25918;DHT22;13899;51.174;4.456;2024-01-27T09:41:33;4.40;99.90
25918;DHT22;13899;51.174;4.456;2024-01-27T09:44:01;4.60;99.90
25918;DHT22;13899;51.174;4.456;2024-01-27T09:46:28;4.70;99.90
25918;DHT22;13899;51.174;4.456;2024-01-27T09:48:54;5.00;99.90
25918;DHT22;13899;51.174;4.456;2024-01-27T09:51:20;5.10;99.90
25918;DHT22;13899;51.174;4.456;2024-01-27T09:53:46;5.50;99.90
25918;DHT22;13899;51.174;4.456;2024-01-27T09:56:12;5.80;99.90
25918;DHT22;13899;51.174;4.456;2024-01-27T09:58:44;6.30;99.90
25918;DHT22;13899;51.174;4.456;2024-01-27T10:01:10;6.70;99.90
25918;DHT22;13899;51.174;4.456;2024-01-27T10:03:39;7.40;99.90
25918;DHT22;13899;51.174;4.456;2024-01-27T10:06:08;7.60;99.90
25918;DHT22;13899;51.174;4.456;2024-01-27T10:08:33;7.30;99.90
25918;DHT22;13899;51.174;4.456;2024-01-27T10:10:59;7.90;99.90
25918;DHT22;13899;51.174;4.456;2024-01-27T10:13:26;8.50;99.90
25918;DHT22;13899;51.174;4.456;2024-01-27T10:16:04;9.00;99.90
25918;DHT22;13899;51.174;4.456;2024-01-27T10:18:31;8.60;99.90
25918;DHT22;13899;51.174;4.456;2024-01-27T10:20:57;8.30;99.90
25918;DHT22;13899;51.174;4.456;2024-01-27T10:23:23;8.20;99.90
25918;DHT22;13899;51.174;4.456;2024-01-27T10:25:49;8.40;99.90
25918;DHT22;13899;51.174;4.456;2024-01-27T10:28:15;8.80;99.90
25918;DHT22;13899;51.174;4.456;2024-01-27T10:30:41;9.50;99.90
25918;DHT22;13899;51.174;4.456;2024-01-27T10:33:09;9.00;99.90
25918;DHT22;13899;51.174;4.456;2024-01-27T10:35:42;8.70;99.90
25918;DHT22;13899;51.174;4.456;2024-01-27T10:38:08;8.90;99.90
25918;DHT22;13899;51.174;4.456;2024-01-27T10:40:35;8.50;99.90
25918;DHT22;13899;51.174;4.456;2024-01-27T10:43:05;8.10;99.90
25918;DHT22;13899;51.174;4.456;2024-01-27T10:45:37;8.50;99.90
25918;DHT22;13899;51.174;4.456;2024-01-27T10:48:05;9.20;99.90
25918;DHT22;13899;51.174;4.456;2024-01-27T10:50:36;10.00;99.90
25918;DHT22;13899;51.174;4.456;2024-01-27T10:53:09;10.40;99.90
25918;DHT22;13899;51.174;4.456;2024-01-27T10:55:35;10.00;99.90
25918;DHT22;13899;51.174;4.456;2024-01-27T10:58:03;10.30;99.90
25918;DHT22;13899;51.174;4.456;2024-01-27T11:00:29;11.30;99.90
25918;DHT22;13899;51.174;4.456;2024-01-27T11:02:58;10.90;99.90
25918;DHT22;13899;51.174;4.456;2024-01-27T11:05:24;10.10;99.90
25918;DHT22;13899;51.174;4.456;2024-01-27T11:07:53;9.70;99.90
25918;DHT22;13899;51.174;4.456;2024-01-27T11:10:18;10.20;99.90
25918;DHT22;13899;51.174;4.456;2024-01-27T11:12:45;10.20;99.90
25918;DHT22;13899;51.174;4.456;2024-01-27T11:15:12;10.80;99.90
25918;DHT22;13899;51.174;4.456;2024-01-27T11:17:41;11.70;99.90
25918;DHT22;13899;51.174;4.456;2024-01-27T11:20:08;10.50;99.90
25918;DHT22;13899;51.174;4.456;2024-01-27T11:22:37;10.80;99.90
25918;DHT22;13899;51.174;4.456;2024-01-27T11:27:42;9.80;99.90
25918;DHT22;13899;51.174;4.456;2024-01-27T11:30:30;9.90;99.90
25918;DHT22;13899;51.174;4.456;2024-01-27T11:32:56;10.40;99.90
25918;DHT22;13899;51.174;4.456;2024-01-27T11:35:26;10.00;99.90
25918;DHT22;13899;51.174;4.456;2024-01-27T11:37:52;10.60;99.90
25918;DHT22;13899;51.174;4.456;2024-01-27T11:40:18;11.50;99.90
25918;DHT22;13899;51.174;4.456;2024-01-27T11:42:53;11.80;99.90
25918;DHT22;13899;51.174;4.456;2024-01-27T11:45:18;10.80;99.90
25918;DHT22;13899;51.174;4.456;2024-01-27T11:47:44;10.80;99.90
25918;DHT22;13899;51.174;4.456;2024-01-27T11:50:11;12.00;99.90
25918;DHT22;13899;51.174;4.456;2024-01-27T11:52:37;10.80;99.90
25918;DHT22;13899;51.174;4.456;2024-01-27T11:55:04;10.40;99.90
25918;DHT22;13899;51.174;4.456;2024-01-27T11:57:29;10.20;99.90
25918;DHT22;13899;51.174;4.456;2024-01-27T11:59:56;10.20;99.90
25918;DHT22;13899;51.174;4.456;2024-01-27T12:02:26;10.70;99.90
25918;DHT22;13899;51.174;4.456;2024-01-27T12:04:52;10.90;99.90
25918;DHT22;13899;51.174;4.456;2024-01-27T12:07:19;11.50;99.90
25918;DHT22;13899;51.174;4.456;2024-01-27T12:09:45;12.30;99.90
25918;DHT22;13899;51.174;4.456;2024-01-27T12:12:12;11.70;99.90
25918;DHT22;13899;51.174;4.456;2024-01-27T12:14:48;11.00;99.90
25918;DHT22;13899;51.174;4.456;2024-01-27T12:17:15;10.90;99.90
25918;DHT22;13899;51.174;4.456;2024-01-27T12:19:49;11.50;99.90
25918;DHT22;13899;51.174;4.456;2024-01-27T12:22:25;11.40;99.90
25918;DHT22;13899;51.174;4.456;2024-01-27T12:25:09;11.30;99.90
25918;DHT22;13899;51.174;4.456;2024-01-27T12:27:42;10.90;99.90
25918;DHT22;13899;51.174;4.456;2024-01-27T12:30:12;10.80;99.90
25918;DHT22;13899;51.174;4.456;2024-01-27T12:32:38;11.50;99.90
25918;DHT22;13899;51.174;4.456;2024-01-27T12:35:05;10.70;99.90
25918;DHT22;13899;51.174;4.456;2024-01-27T12:37:31;10.60;99.90
25918;DHT22;13899;51.174;4.456;2024-01-27T12:39:56;10.70;99.90
25918;DHT22;13899;51.174;4.456;2024-01-27T12:42:22;11.20;99.90
25918;DHT22;13899;51.174;4.456;2024-01-27T12:44:48;11.60;99.90
25918;DHT22;13899;51.174;4.456;2024-01-27T12:47:14;10.30;99.90
25918;DHT22;13899;51.174;4.456;2024-01-27T12:49:40;10.20;99.90
25918;DHT22;13899;51.174;4.456;2024-01-27T12:52:07;9.90;99.90
25918;DHT22;13899;51.174;4.456;2024-01-27T12:54:33;10.00;99.90
25918;DHT22;13899;51.174;4.456;2024-01-27T12:56:59;9.70;99.90
25918;DHT22;13899;51.174;4.456;2024-01-27T12:59:27;9.40;99.90
25918;DHT22;13899;51.174;4.456;2024-01-27T13:01:52;9.40;99.90
25918;DHT22;13899;51.174;4.456;2024-01-27T13:04:18;9.70;99.90
25918;DHT22;13899;51.174;4.456;2024-01-27T13:06:44;9.60;99.90
25918;DHT22;13899;51.174;4.456;2024-01-27T13:09:10;9.80;99.90
25918;DHT22;13899;51.174;4.456;2024-01-27T13:11:39;9.70;99.90
25918;DHT22;13899;51.174;4.456;2024-01-27T13:14:05;9.50;99.90
25918;DHT22;13899;51.174;4.456;2024-01-27T13:16:32;9.50;99.90
25918;DHT22;13899;51.174;4.456;2024-01-27T13:18:59;10.00;99.90
25918;DHT22;13899;51.174;4.456;2024-01-27T13:21:25;10.30;99.90
25918;DHT22;13899;51.174;4.456;2024-01-27T13:23:51;10.60;99.90
25918;DHT22;13899;51.174;4.456;2024-01-27T13:26:18;10.60;99.90
25918;DHT22;13899;51.174;4.456;2024-01-27T13:28:44;10.80;99.90
25918;DHT22;13899;51.174;4.456;2024-01-27T13:31:10;10.70;99.90
25918;DHT22;13899;51.174;4.456;2024-01-27T13:33:36;10.40;99.90
25918;DHT22;13899;51.174;4.456;2024-01-27T13:36:02;9.80;99.90
25918;DHT22;13899;51.174;4.456;2024-01-27T13:38:27;9.70;99.90
25918;DHT22;13899;51.174;4.456;2024-01-27T13:40:54;10.40;99.90
25918;DHT22;13899;51.174;4.456;2024-01-27T13:43:20;10.80;99.90
25918;DHT22;13899;51.174;4.456;2024-01-27T13:45:46;11.30;99.90
25918;DHT22;13899;51.174;4.456;2024-01-27T13:48:13;10.50;99.90
25918;DHT22;13899;51.174;4.456;2024-01-27T13:50:38;10.50;99.90
25918;DHT22;13899;51.174;4.456;2024-01-27T13:53:04;10.40;99.90
25918;DHT22;13899;51.174;4.456;2024-01-27T13:55:31;11.50;99.90
25918;DHT22;13899;51.174;4.456;2024-01-27T13:57:57;11.80;99.90
25918;DHT22;13899;51.174;4.456;2024-01-27T14:00:23;12.90;99.90
25918;DHT22;13899;51.174;4.456;2024-01-27T14:02:48;11.80;99.90
25918;DHT22;13899;51.174;4.456;2024-01-27T14:05:14;11.30;99.90
25918;DHT22;13899;51.174;4.456;2024-01-27T14:07:40;11.40;99.90
25918;DHT22;13899;51.174;4.456;2024-01-27T14:10:06;11.80;99.90
25918;DHT22;13899;51.174;4.456;2024-01-27T14:42:33;10.30;99.90
25918;DHT22;13899;51.174;4.456;2024-01-27T14:45:01;12.60;99.90
25918;DHT22;13899;51.174;4.456;2024-01-27T14:47:27;14.10;99.90
25918;DHT22;13899;51.174;4.456;2024-01-27T14:49:52;13.00;99.90
25918;DHT22;13899;51.174;4.456;2024-01-27T14:52:18;11.90;99.90
25918;DHT22;13899;51.174;4.456;2024-01-27T14:54:45;12.40;99.90
25918;DHT22;13899;51.174;4.456;2024-01-27T14:57:10;11.50;99.90
25918;DHT22;13899;51.174;4.456;2024-01-27T14:59:36;11.90;99.90
25918;DHT22;13899;51.174;4.456;2024-01-27T15:02:04;12.50;99.90
25918;DHT22;13899;51.174;4.456;2024-01-27T15:04:31;11.50;99.90
25918;DHT22;13899;51.174;4.456;2024-01-27T15:06:57;11.10;99.90
25918;DHT22;13899;51.174;4.456;2024-01-27T15:09:23;10.20;99.90
25918;DHT22;13899;51.174;4.456;2024-01-27T15:11:49;10.00;99.90
25918;DHT22;13899;51.174;4.456;2024-01-27T15:14:16;9.60;99.90
25918;DHT22;13899;51.174;4.456;2024-01-27T15:16:42;9.70;99.90
25918;DHT22;13899;51.174;4.456;2024-01-27T15:19:08;9.70;99.90
25918;DHT22;13899;51.174;4.456;2024-01-27T15:21:33;9.90;99.90
25918;DHT22;13899;51.174;4.456;2024-01-27T15:23:59;10.20;99.90
25918;DHT22;13899;51.174;4.456;2024-01-27T15:26:25;9.90;99.90
25918;DHT22;13899;51.174;4.456;2024-01-27T15:28:51;9.90;99.90
25918;DHT22;13899;51.174;4.456;2024-01-27T15:31:16;9.80;99.90
25918;DHT22;13899;51.174;4.456;2024-01-27T15:33:42;9.70;99.90
25918;DHT22;13899;51.174;4.456;2024-01-27T15:36:08;9.80;99.90
25918;DHT22;13899;51.174;4.456;2024-01-27T15:38:34;10.60;99.90
25918;DHT22;13899;51.174;4.456;2024-01-27T15:40:59;10.50;99.90
25918;DHT22;13899;51.174;4.456;2024-01-27T15:43:28;10.30;99.90
25918;DHT22;13899;51.174;4.456;2024-01-27T15:45:53;10.40;99.90
25918;DHT22;13899;51.174;4.456;2024-01-27T15:48:19;10.20;99.90
25918;DHT22;13899;51.174;4.456;2024-01-27T15:50:44;10.40;99.90
25918;DHT22;13899;51.174;4.456;2024-01-27T15:53:10;10.40;99.90
25918;DHT22;13899;51.174;4.456;2024-01-27T15:55:36;10.30;99.90
25918;DHT22;13899;51.174;4.456;2024-01-27T15:58:01;10.50;99.90
25918;DHT22;13899;51.174;4.456;2024-01-27T16:00:27;10.90;99.90
25918;DHT22;13899;51.174;4.456;2024-01-27T16:02:54;11.10;99.90
25918;DHT22;13899;51.174;4.456;2024-01-27T16:05:20;11.20;99.90
25918;DHT22;13899;51.174;4.456;2024-01-27T16:07:46;11.10;99.90
25918;DHT22;13899;51.174;4.456;2024-01-27T16:10:11;11.40;99.90